Time;durP1;ratioP1;P1;durP2;ratioP2;P2;SDS_P1;SDS_P2;PMS_P1;PMS_P2;Temp;Humidity;BMP_temperature;BMP_pressure;BME280_temperature;BME280_humidity;BME280_pressure;Samples;Min_cycle;Max_cycle;Signal;HPM_P1;HPM_P2
2022/08/18 00:00:20;;;;;;;16.48;10.73;;;19.10;99.90;;;;;;5087420;28;20130;-70
2022/08/18 00:02:47;;;;;;;14.27;10.32;;;19.10;99.90;;;;;;5108499;28;20066;-71
2022/08/18 00:05:12;;;;;;;15.25;10.50;;;19.10;99.90;;;;;;5108135;28;20062;-71
2022/08/18 00:07:40;;;;;;;18.83;11.05;;;19.10;99.90;;;;;;5090317;28;20571;-71
2022/08/18 00:10:06;;;;;;;21.05;11.88;;;19.10;99.90;;;;;;5108060;28;20032;-71
2022/08/18 00:12:39;;;;;;;17.63;10.40;;;19.10;99.90;;;;;;5108393;28;20043;-71
2022/08/18 00:15:11;;;;;;;15.38;9.32;;;19.00;99.90;;;;;;5107690;28;20117;-70
2022/08/18 00:17:37;;;;;;;17.02;11.27;;;19.00;99.90;;;;;;5104011;28;20040;-71
2022/08/18 00:20:05;;;;;;;13.10;11.10;;;19.00;99.90;;;;;;5108279;28;20032;-71
2022/08/18 00:22:31;;;;;;;;;;;19.00;99.90;;;;;;5094099;28;20035;-71
2022/08/18 00:24:57;;;;;;;15.75;11.07;;;19.00;99.90;;;;;;5095642;28;19924;-71
2022/08/18 00:27:28;;;;;;;15.70;9.95;;;19.00;99.90;;;;;;5106464;28;20046;-70
2022/08/18 00:30:00;;;;;;;11.52;10.18;;;19.00;99.90;;;;;;5092573;28;20124;-71
2022/08/18 00:32:32;;;;;;;11.32;10.23;;;18.90;99.90;;;;;;5092021;28;20079;-71
2022/08/18 00:35:12;;;;;;;25.00;9.38;;;18.90;99.90;;;;;;5089959;28;20062;-71
2022/08/18 00:37:39;;;;;;;10.23;9.15;;;18.90;99.90;;;;;;5108878;28;20442;-71
2022/08/18 00:40:07;;;;;;;15.25;10.55;;;18.80;99.90;;;;;;5109132;28;20047;-71
2022/08/18 00:42:39;;;;;;;16.95;10.02;;;18.80;99.90;;;;;;5099380;28;20117;-71
2022/08/18 00:45:05;;;;;;;13.50;10.55;;;18.80;99.90;;;;;;5102731;28;20039;-71
2022/08/18 00:47:31;;;;;;;12.93;9.18;;;18.70;99.90;;;;;;5112882;28;20035;-71
2022/08/18 00:49:57;;;;;;;16.42;10.85;;;18.70;99.90;;;;;;5111144;28;20093;-71
2022/08/18 00:52:24;;;;;;;16.20;10.15;;;18.70;99.90;;;;;;5112502;28;20067;-70
2022/08/18 00:54:52;;;;;;;11.57;10.47;;;18.60;99.90;;;;;;5112980;28;20054;-71
2022/08/18 00:57:20;;;;;;;13.48;12.07;;;18.60;99.90;;;;;;5112903;28;20812;-71
2022/08/18 01:00:13;;;;;;;13.45;10.10;;;18.50;99.90;;;;;;5111960;28;20164;-72
2022/08/18 01:02:43;;;;;;;14.35;11.65;;;18.50;99.90;;;;;;5090954;28;20044;-71
2022/08/18 01:05:39;;;;;;;18.50;11.95;;;18.50;99.90;;;;;;5094915;28;20400;-71
2022/08/18 01:08:10;;;;;;;12.07;10.88;;;18.50;99.90;;;;;;5109087;28;20139;-70
2022/08/18 01:10:38;;;;;;;17.23;11.90;;;18.50;99.90;;;;;;5096242;28;20397;-71
2022/08/18 01:13:04;;;;;;;15.38;12.68;;;18.50;99.90;;;;;;5102642;28;20071;-72
2022/08/18 01:15:31;;;;;;;20.60;13.82;;;18.50;99.90;;;;;;5092458;28;20120;-72
2022/08/18 01:23:53;;;;;;;26.00;13.30;;;18.50;99.90;;;;;;5109325;27;19920;-72
2022/08/18 01:26:21;;;;;;;22.97;13.17;;;18.50;99.90;;;;;;5093323;28;20109;-72
2022/08/18 01:28:48;;;;;;;24.33;14.25;;;18.50;99.90;;;;;;5076817;28;20285;-72
2022/08/18 01:31:29;;;;;;;21.92;13.32;;;18.50;99.90;;;;;;5084347;28;20039;-73
2022/08/18 01:33:56;;;;;;;26.50;14.18;;;18.50;99.90;;;;;;5093583;27;20051;-73
2022/08/18 01:36:22;;;;;;;21.80;13.27;;;18.50;99.90;;;;;;5086169;28;20079;-73
2022/08/18 01:38:52;;;;;;;22.40;12.65;;;18.50;99.90;;;;;;5091933;28;20131;-73
2022/08/18 01:41:20;;;;;;;15.48;12.43;;;18.50;99.90;;;;;;5093124;27;20126;-72
2022/08/18 01:43:47;;;;;;;17.20;12.27;;;18.50;99.90;;;;;;5082966;28;20069;-73
2022/08/18 01:46:12;;;;;;;20.33;12.27;;;18.40;99.90;;;;;;5108751;28;20088;-72
2022/08/18 01:48:38;;;;;;;23.48;13.52;;;18.40;99.90;;;;;;5111411;28;20040;-72
2022/08/18 01:51:08;;;;;;;25.95;13.45;;;18.40;99.90;;;;;;5105984;28;20032;-71
2022/08/18 01:53:36;;;;;;;19.60;12.57;;;18.40;99.90;;;;;;5110301;28;20176;-72
2022/08/18 01:56:04;;;;;;;19.98;14.63;;;18.40;99.90;;;;;;5111866;28;20131;-72
2022/08/18 01:58:33;;;;;;;17.48;11.27;;;18.30;99.90;;;;;;5111500;28;20084;-72
2022/08/18 02:01:02;;;;;;;12.55;11.25;;;18.30;99.90;;;;;;5092212;28;20051;-72
2022/08/18 02:03:33;;;;;;;13.85;11.98;;;18.30;99.90;;;;;;5091188;28;20428;-72
2022/08/18 02:06:02;;;;;;;21.45;12.48;;;18.30;99.90;;;;;;5083481;28;20085;-72
2022/08/18 02:08:29;;;;;;;20.58;12.82;;;18.20;99.90;;;;;;5089976;28;20062;-72
2022/08/18 02:10:57;;;;;;;25.15;11.80;;;18.20;99.90;;;;;;5080338;28;20055;-72
2022/08/18 02:13:26;;;;;;;16.38;11.52;;;18.20;99.90;;;;;;5110667;28;20047;-72
2022/08/18 02:15:52;;;;;;;15.35;11.50;;;18.10;99.90;;;;;;5090347;28;20071;-72
2022/08/18 02:18:32;;;;;;;17.60;11.98;;;18.10;99.90;;;;;;5110152;28;20604;-72
2022/08/18 02:21:07;;;;;;;20.92;11.95;;;18.10;99.90;;;;;;5091427;28;20788;-72
2022/08/18 02:23:33;;;;;;;15.63;12.38;;;18.10;99.90;;;;;;5070956;28;20044;-72
2022/08/18 02:26:04;;;;;;;24.42;12.82;;;18.00;99.90;;;;;;5108990;28;20058;-72
2022/08/18 02:28:30;;;;;;;16.73;12.20;;;18.00;99.90;;;;;;5091406;28;20053;-72
2022/08/18 02:30:55;;;;;;;17.50;12.70;;;18.00;99.90;;;;;;5091959;28;20044;-72
2022/08/18 02:33:21;;;;;;;24.63;14.27;;;18.00;99.90;;;;;;5091985;28;20841;-72
2022/08/18 02:35:53;;;;;;;35.08;13.68;;;18.00;99.90;;;;;;5109570;28;20048;-72
2022/08/18 02:38:18;;;;;;;14.55;12.45;;;18.00;99.90;;;;;;5087731;28;20039;-71
2022/08/18 02:40:45;;;;;;;22.90;13.38;;;18.00;99.90;;;;;;5091446;28;20051;-72
2022/08/18 02:43:11;;;;;;;30.48;14.10;;;18.00;99.90;;;;;;5091113;28;20136;-72
2022/08/18 02:45:38;;;;;;;16.40;13.75;;;18.00;99.90;;;;;;5091673;28;20040;-72
2022/08/18 02:48:05;;;;;;;15.70;13.23;;;18.00;99.90;;;;;;5087850;28;20048;-72
2022/08/18 02:50:30;;;;;;;28.02;14.38;;;18.00;99.90;;;;;;5105815;28;20471;-73
2022/08/18 02:52:56;;;;;;;17.80;15.15;;;18.10;99.90;;;;;;5090777;28;20180;-72
2022/08/18 02:55:25;;;;;;;16.50;13.95;;;18.10;99.90;;;;;;5091373;28;20088;-72
2022/08/18 02:57:51;;;;;;;16.98;12.93;;;18.10;99.90;;;;;;5091899;28;20036;-72
2022/08/18 03:00:18;;;;;;;23.92;13.02;;;18.10;99.90;;;;;;5109211;28;20160;-72
2022/08/18 03:02:46;;;;;;;21.77;15.05;;;18.10;99.90;;;;;;5074132;28;20044;-72
2022/08/18 03:05:12;;;;;;;19.55;15.48;;;18.20;99.90;;;;;;5108976;28;20123;-72
2022/08/18 03:07:38;;;;;;;22.50;16.38;;;18.20;99.90;;;;;;5109854;28;20054;-72
2022/08/18 03:10:04;;;;;;;23.15;16.40;;;18.20;99.90;;;;;;5105049;28;20039;-72
2022/08/18 03:12:29;;;;;;;28.25;17.50;;;18.20;99.90;;;;;;5085417;28;20067;-72
2022/08/18 03:14:55;;;;;;;20.73;16.52;;;18.20;99.90;;;;;;5090137;28;20492;-72
2022/08/18 03:17:20;;;;;;;21.95;15.35;;;18.30;99.90;;;;;;5108600;28;20035;-72
2022/08/18 03:19:46;;;;;;;31.83;16.55;;;18.30;99.90;;;;;;5091224;28;20401;-72
2022/08/18 03:22:13;;;;;;;20.73;15.43;;;18.30;99.90;;;;;;5104670;28;20055;-72
2022/08/18 03:24:39;;;;;;;25.13;14.68;;;18.30;99.90;;;;;;5107818;28;20043;-73
2022/08/18 03:27:06;;;;;;;33.08;18.00;;;18.30;99.90;;;;;;5108523;28;20513;-72
2022/08/18 03:29:33;;;;;;;30.67;17.77;;;18.30;99.90;;;;;;5091167;28;20123;-72
2022/08/18 03:32:03;;;;;;;26.42;17.08;;;18.30;99.90;;;;;;5107769;28;20281;-72
2022/08/18 03:34:30;;;;;;;25.30;18.38;;;18.40;99.90;;;;;;5108229;28;20047;-72
2022/08/18 03:36:56;;;;;;;25.95;18.75;;;18.40;99.90;;;;;;5090123;28;20062;-72
2022/08/18 03:39:22;;;;;;;27.65;18.85;;;18.40;99.90;;;;;;5089126;28;20048;-72
2022/08/18 03:41:49;;;;;;;36.38;20.38;;;18.40;99.90;;;;;;5090019;28;20501;-72
2022/08/18 03:44:16;;;;;;;29.92;19.50;;;18.40;99.90;;;;;;5090231;28;20139;-72
2022/08/18 03:46:43;;;;;;;33.20;19.60;;;18.40;99.90;;;;;;5108183;28;20048;-73
2022/08/18 03:49:09;;;;;;;27.40;22.48;;;18.40;99.90;;;;;;5109057;28;20488;-73
2022/08/18 03:51:35;;;;;;;27.65;20.42;;;18.40;99.90;;;;;;5089520;28;20050;-72
2022/08/18 03:54:02;;;;;;;23.80;18.20;;;18.40;99.90;;;;;;5079612;28;20051;-72
2022/08/18 03:56:32;;;;;;;25.67;19.37;;;18.40;99.90;;;;;;5073332;28;20051;-73
2022/08/18 03:59:00;;;;;;;25.63;20.45;;;18.50;99.90;;;;;;5089436;28;20289;-72
2022/08/18 04:01:32;;;;;;;30.13;20.42;;;18.50;99.90;;;;;;5080939;28;20048;-73
2022/08/18 04:04:02;;;;;;;33.25;20.70;;;18.50;99.90;;;;;;5090126;28;20071;-73
2022/08/18 04:06:33;;;;;;;33.78;21.00;;;18.50;99.90;;;;;;5090443;28;20043;-72
2022/08/18 04:09:01;;;;;;;27.63;20.08;;;18.50;99.90;;;;;;5088770;28;20122;-73
2022/08/18 04:11:30;;;;;;;25.25;18.23;;;18.50;99.90;;;;;;5108095;28;20048;-72
2022/08/18 04:13:57;;;;;;;28.67;19.15;;;18.50;99.90;;;;;;5088841;28;20051;-72
2022/08/18 04:16:37;;;;;;;36.92;20.02;;;18.50;99.90;;;;;;5081646;28;20127;-72
2022/08/18 04:19:03;;;;;;;26.17;19.00;;;18.50;99.90;;;;;;5084143;28;20063;-73
2022/08/18 04:21:31;;;;;;;37.08;23.50;;;18.50;99.90;;;;;;5073209;28;20177;-72
2022/08/18 04:24:01;;;;;;;;;;;18.50;99.90;;;;;;5089157;28;20074;-73
2022/08/18 04:26:27;;;;;;;40.22;21.58;;;18.50;99.90;;;;;;5107639;28;19928;-72
2022/08/18 04:28:55;;;;;;;35.80;20.88;;;18.40;99.90;;;;;;5104949;28;20096;-72
2022/08/18 04:31:23;;;;;;;36.50;21.70;;;18.40;99.90;;;;;;5096891;28;20036;-72
2022/08/18 04:33:49;;;;;;;30.95;19.25;;;18.50;99.90;;;;;;5107879;28;20051;-72
2022/08/18 04:36:16;;;;;;;30.77;18.45;;;18.50;99.90;;;;;;5108106;28;20039;-72
2022/08/18 04:38:43;;;;;;;35.33;21.90;;;18.50;99.90;;;;;;5078456;28;20052;-72
2022/08/18 04:41:11;;;;;;;31.80;21.45;;;18.50;99.90;;;;;;5107417;28;20079;-72
2022/08/18 04:43:37;;;;;;;;;;;18.50;99.90;;;;;;5089559;28;20508;-72
2022/08/18 04:46:03;;;;;;;30.27;19.15;;;18.50;99.90;;;;;;5107711;28;19923;-72
2022/08/18 04:48:36;;;;;;;26.70;18.75;;;18.50;99.90;;;;;;5107884;28;20523;-72
2022/08/18 04:51:11;;;;;;;26.27;18.45;;;18.50;99.90;;;;;;5107609;28;20382;-73
2022/08/18 04:53:44;;;;;;;30.45;18.88;;;18.50;99.90;;;;;;5107174;28;20052;-74
2022/08/18 04:56:20;;;;;;;29.60;19.13;;;18.50;99.90;;;;;;5087771;28;20040;-75
2022/08/18 04:58:49;;;;;;;42.72;18.20;;;18.50;99.90;;;;;;5084543;28;20124;-76
2022/08/18 05:01:16;;;;;;;23.23;17.95;;;18.50;99.90;;;;;;5080698;28;20162;-73
2022/08/18 05:03:43;;;;;;;31.83;18.45;;;18.50;99.90;;;;;;5082866;28;20060;-72
2022/08/18 05:06:08;;;;;;;32.67;18.92;;;18.50;99.90;;;;;;5086869;28;20048;-72
2022/08/18 05:08:34;;;;;;;25.35;17.67;;;18.60;99.90;;;;;;5072988;28;20199;-73
2022/08/18 05:11:00;;;;;;;35.13;17.27;;;18.60;99.90;;;;;;5081733;28;20577;-73
2022/08/18 05:13:26;;;;;;;23.90;18.23;;;18.50;99.90;;;;;;5086121;28;20048;-73
2022/08/18 05:15:56;;;;;;;25.13;17.35;;;18.60;99.90;;;;;;5083466;28;20751;-73
2022/08/18 05:18:25;;;;;;;29.83;19.50;;;18.60;99.90;;;;;;5079032;28;20043;-73
2022/08/18 05:20:52;;;;;;;26.42;17.75;;;18.60;99.90;;;;;;5080227;28;20127;-73
2022/08/18 05:23:21;;;;;;;30.38;20.48;;;18.60;99.90;;;;;;5078051;28;20090;-73
2022/08/18 05:25:47;;;;;;;44.70;20.80;;;18.60;99.90;;;;;;5084965;28;20078;-72
2022/08/18 05:28:14;;;;;;;19.30;16.02;;;18.60;99.90;;;;;;5088886;28;20105;-72
2022/08/18 05:30:40;;;;;;;21.63;17.15;;;18.60;99.90;;;;;;5079230;28;20059;-73
2022/08/18 05:33:09;;;;;;;20.25;16.02;;;18.60;99.90;;;;;;5091185;28;20056;-73
2022/08/18 05:36:02;;;;;;;24.02;17.65;;;18.60;99.90;;;;;;5087604;28;20044;-73
2022/08/18 05:38:28;;;;;;;49.70;21.55;;;18.70;99.90;;;;;;5081868;28;20735;-73
2022/08/18 05:41:23;;;;;;;24.88;17.13;;;18.70;99.90;;;;;;5088925;28;20044;-73
2022/08/18 05:43:50;;;;;;;28.05;17.48;;;18.70;99.90;;;;;;5080843;28;20061;-73
2022/08/18 05:46:16;;;;;;;27.00;15.90;;;18.70;99.90;;;;;;5091507;28;20035;-74
2022/08/18 05:48:42;;;;;;;22.45;15.90;;;18.70;99.90;;;;;;5083986;28;20052;-73
2022/08/18 05:51:21;;;;;;;18.25;14.43;;;18.70;99.90;;;;;;5089515;28;20054;-73
2022/08/18 05:56:47;;;;;;;17.27;15.07;;;18.70;99.90;;;;;;5090633;28;20075;-74
2022/08/18 05:59:26;;;;;;;22.60;15.60;;;18.70;99.90;;;;;;5088779;28;20094;-73
2022/08/18 06:02:02;;;;;;;25.95;15.90;;;18.80;99.90;;;;;;5089116;28;20055;-73
2022/08/18 06:04:39;;;;;;;26.92;15.48;;;18.80;99.90;;;;;;5089237;28;20044;-73
2022/08/18 06:07:09;;;;;;;25.45;15.52;;;18.80;99.90;;;;;;5094783;28;20123;-73
2022/08/18 06:09:49;;;;;;;20.08;15.30;;;18.80;99.90;;;;;;5090907;28;20056;-73
2022/08/18 06:12:32;;;;;;;19.10;13.63;;;18.80;99.90;;;;;;5089852;28;20051;-73
2022/08/18 06:15:28;;;;;;;20.10;13.40;;;18.90;99.90;;;;;;5090085;28;20090;-72
2022/08/18 06:18:24;;;;;;;19.52;14.75;;;18.90;99.90;;;;;;5091240;28;20040;-73
2022/08/18 06:21:09;;;;;;;21.80;14.77;;;19.00;99.90;;;;;;5087681;28;20048;-73
2022/08/18 06:23:45;;;;;;;20.40;14.43;;;19.00;99.90;;;;;;5065907;28;20795;-73
2022/08/18 06:26:22;;;;;;;21.90;14.30;;;19.00;99.90;;;;;;5091255;28;20152;-72
2022/08/18 06:29:09;;;;;;;23.40;15.73;;;19.10;99.90;;;;;;5076355;28;20051;-71
2022/08/18 06:31:46;;;;;;;16.80;13.50;;;19.20;99.90;;;;;;5089811;28;20067;-71
2022/08/18 06:34:30;;;;;;;15.82;12.85;;;19.20;99.90;;;;;;5079265;28;20352;-71
2022/08/18 06:37:25;;;;;;;20.20;12.85;;;19.20;99.90;;;;;;5088119;28;20463;-72
2022/08/18 06:39:52;;;;;;;17.13;13.70;;;19.20;99.90;;;;;;5078091;28;20448;-72
2022/08/18 06:42:20;;;;;;;26.33;15.18;;;19.20;99.90;;;;;;5089456;28;20040;-72
2022/08/18 06:44:51;;;;;;;23.48;15.88;;;19.20;99.90;;;;;;5089464;28;20039;-72
2022/08/18 06:47:27;;;;;;;19.58;14.15;;;19.20;99.90;;;;;;5089110;28;20044;-72
2022/08/18 06:50:08;;;;;;;22.95;14.48;;;19.30;99.90;;;;;;5087123;28;20040;-71
2022/08/18 06:52:50;;;;;;;20.05;15.18;;;19.30;99.90;;;;;;5087602;28;20128;-72
2022/08/18 06:55:17;;;;;;;21.60;14.55;;;19.30;99.90;;;;;;5085836;28;20707;-71
2022/08/18 06:57:58;;;;;;;22.10;16.27;;;19.30;99.90;;;;;;5070385;28;20044;-71
2022/08/18 07:00:28;;;;;;;18.75;15.45;;;19.40;99.90;;;;;;5084659;28;20066;-70
2022/08/18 07:03:10;;;;;;;23.15;15.65;;;19.30;99.90;;;;;;5087732;28;20046;-71
2022/08/18 07:05:56;;;;;;;22.65;16.55;;;19.40;99.90;;;;;;5084440;28;20048;-71
2022/08/18 07:08:35;;;;;;;20.15;15.80;;;19.40;99.90;;;;;;5085272;28;20119;-71
2022/08/18 07:11:20;;;;;;;20.58;15.10;;;19.40;99.90;;;;;;5087305;28;20048;-71
2022/08/18 07:13:49;;;;;;;23.88;17.17;;;19.40;99.90;;;;;;5088787;28;20051;-69
2022/08/18 07:16:26;;;;;;;24.30;17.10;;;19.50;99.90;;;;;;5087146;28;20071;-71
2022/08/18 07:18:53;;;;;;;23.55;16.92;;;19.50;99.90;;;;;;5083396;28;20075;-71
2022/08/18 07:21:32;;;;;;;16.77;14.35;;;19.50;99.90;;;;;;5084935;28;20130;-70
2022/08/18 07:24:10;;;;;;;19.05;15.43;;;19.60;99.90;;;;;;5086736;28;20054;-71
2022/08/18 07:27:06;;;;;;;19.20;15.70;;;19.60;99.90;;;;;;5082749;28;20124;-73
2022/08/18 07:29:57;;;;;;;27.60;16.63;;;19.60;99.90;;;;;;5083097;28;20496;-74
2022/08/18 07:32:28;;;;;;;25.13;15.82;;;19.60;99.90;;;;;;5075293;28;20044;-73
2022/08/18 07:34:57;;;;;;;18.25;13.45;;;19.60;99.90;;;;;;5082953;28;20052;-75
2022/08/18 07:37:27;;;;;;;25.80;16.38;;;19.60;99.90;;;;;;5077870;28;20497;-72
2022/08/18 07:40:02;;;;;;;23.25;14.80;;;19.60;99.90;;;;;;5080772;28;20523;-72
2022/08/18 07:42:40;;;;;;;18.48;14.30;;;19.60;99.90;;;;;;5080320;28;20063;-72
2022/08/18 07:45:32;;;;;;;20.85;13.85;;;19.60;99.90;;;;;;5085323;28;20048;-72
2022/08/18 07:48:15;;;;;;;17.63;12.70;;;19.70;99.90;;;;;;5084128;28;20050;-71
2022/08/18 07:50:52;;;;;;;19.45;13.43;;;19.70;99.90;;;;;;5089388;28;20044;-72
2022/08/18 07:53:40;;;;;;;20.08;14.00;;;19.80;99.90;;;;;;5069362;28;20043;-71
2022/08/18 07:56:36;;;;;;;16.83;14.98;;;19.80;99.90;;;;;;5070345;28;20048;-72
2022/08/18 07:59:17;;;;;;;18.98;14.00;;;19.80;99.90;;;;;;5089389;28;20059;-72
2022/08/18 08:01:51;;;;;;;19.50;13.13;;;19.80;99.90;;;;;;5088288;28;20130;-72
2022/08/18 08:04:17;;;;;;;15.88;13.02;;;19.90;99.90;;;;;;5102910;28;20050;-72
2022/08/18 08:06:52;;;;;;;18.55;14.95;;;19.90;99.90;;;;;;5087866;28;20083;-71
2022/08/18 08:09:33;;;;;;;18.90;14.18;;;20.00;99.90;;;;;;5089234;28;20047;-71
2022/08/18 08:12:08;;;;;;;21.42;13.00;;;20.20;99.90;;;;;;5085044;28;20055;-71
2022/08/18 08:14:59;;;;;;;19.50;12.63;;;20.40;99.90;;;;;;5102710;28;20048;-71
2022/08/18 08:17:49;;;;;;;13.13;11.70;;;20.70;99.90;;;;;;5101121;28;20036;-71
2022/08/18 08:20:33;;;;;;;15.27;10.63;;;20.70;99.90;;;;;;5085513;28;20039;-72
2022/08/18 08:23:16;;;;;;;14.57;10.45;;;20.80;99.90;;;;;;5107018;28;20047;-71
2022/08/18 08:26:03;;;;;;;12.18;9.63;;;20.90;99.90;;;;;;5088513;28;20042;-72
2022/08/18 08:28:32;;;;;;;8.90;7.75;;;20.80;99.90;;;;;;5097320;28;20052;-71
2022/08/18 08:31:15;;;;;;;10.93;7.68;;;20.70;99.90;;;;;;5085805;28;20161;-71
2022/08/18 08:33:54;;;;;;;11.45;8.70;;;20.70;99.90;;;;;;5106837;28;20052;-71
2022/08/18 08:36:26;;;;;;;12.38;7.60;;;20.60;99.90;;;;;;5106233;28;20048;-75
2022/08/18 08:39:03;;;;;;;15.63;8.85;;;20.50;99.90;;;;;;5088759;28;20082;-72
2022/08/18 08:41:38;;;;;;;18.38;9.13;;;20.50;99.90;;;;;;5102883;28;20032;-72
2022/08/18 08:44:10;;;;;;;14.65;9.18;;;20.50;99.90;;;;;;5080550;28;20135;-71
2022/08/18 08:46:54;;;;;;;18.33;10.13;;;20.40;99.90;;;;;;5081207;28;20043;-73
2022/08/18 08:49:38;;;;;;;11.98;9.57;;;20.50;99.90;;;;;;5090056;28;20118;-72
2022/08/18 08:52:17;;;;;;;15.90;10.18;;;20.40;99.90;;;;;;5103489;28;20585;-72
2022/08/18 08:55:02;;;;;;;18.13;8.60;;;20.40;99.90;;;;;;5081108;28;20127;-73
2022/08/18 08:57:54;;;;;;;12.90;8.95;;;20.40;99.90;;;;;;5108357;28;20044;-72
2022/08/18 09:00:20;;;;;;;11.63;7.65;;;20.50;99.90;;;;;;5074582;28;20420;-72
2022/08/18 09:03:10;;;;;;;15.85;9.40;;;20.40;99.90;;;;;;5110107;28;20036;-73
2022/08/18 09:05:59;;;;;;;14.60;8.15;;;20.50;99.90;;;;;;5100138;28;20130;-73
2022/08/18 09:08:34;;;;;;;10.88;8.70;;;20.40;99.90;;;;;;5088207;28;20052;-73
2022/08/18 09:11:15;;;;;;;14.38;7.18;;;20.40;99.90;;;;;;5092303;28;20086;-73
2022/08/18 09:14:02;;;;;;;15.63;8.20;;;20.40;99.90;;;;;;5089292;28;20056;-73
2022/08/18 09:17:03;;;;;;;;;;;20.50;99.90;;;;;;5108965;28;20047;-73
2022/08/18 09:19:58;;;;;;;15.25;7.95;;;20.50;99.90;;;;;;5028773;28;19927;-73
2022/08/18 09:22:23;;;;;;;18.88;8.73;;;20.50;99.90;;;;;;5109233;28;20059;-73
2022/08/18 09:24:51;;;;;;;13.10;7.22;;;20.60;99.90;;;;;;5112144;28;20055;-73
2022/08/18 09:27:43;;;;;;;11.20;8.07;;;20.60;99.90;;;;;;5112352;28;20047;-73
2022/08/18 09:30:35;;;;;;;15.57;6.75;;;20.70;99.90;;;;;;5092795;28;20385;-74
2022/08/18 09:33:26;;;;;;;10.25;6.63;;;20.70;99.90;;;;;;5074019;28;20088;-74
2022/08/18 09:36:19;;;;;;;10.80;6.05;;;20.70;99.90;;;;;;5108025;28;20046;-73
2022/08/18 09:42:14;;;;;;;15.23;6.18;;;20.70;99.90;;;;;;5086618;28;20059;-73
2022/08/18 09:44:40;;;;;;;11.25;5.13;;;20.70;99.90;;;;;;5084837;28;20040;-73
2022/08/18 09:47:07;;;;;;;9.57;5.97;;;20.60;99.90;;;;;;5091239;28;20059;-74
2022/08/18 09:49:48;;;;;;;5.90;4.70;;;20.70;99.90;;;;;;5110780;28;20051;-73
2022/08/18 09:52:20;;;;;;;15.05;5.75;;;20.80;99.90;;;;;;5100795;28;20047;-73
2022/08/18 09:55:05;;;;;;;12.40;5.35;;;20.80;99.90;;;;;;5106385;28;20055;-73
2022/08/18 09:57:37;;;;;;;11.88;5.75;;;20.80;99.90;;;;;;5092725;28;20039;-73
2022/08/18 10:00:10;;;;;;;7.88;5.50;;;20.80;99.90;;;;;;5110854;28;20170;-73
2022/08/18 10:02:36;;;;;;;14.27;6.63;;;20.90;99.90;;;;;;5110070;28;20136;-72
2022/08/18 10:05:20;;;;;;;9.20;6.45;;;20.90;99.90;;;;;;5092394;28;20075;-73
2022/08/18 10:07:52;;;;;;;10.60;5.32;;;21.00;99.90;;;;;;5072255;28;20052;-72
2022/08/18 10:10:43;;;;;;;13.90;6.32;;;21.10;99.90;;;;;;5086278;28;20527;-73
2022/08/18 10:13:17;;;;;;;8.02;5.65;;;21.30;99.90;;;;;;5101056;28;20108;-74
2022/08/18 10:15:59;;;;;;;6.57;4.63;;;21.40;99.90;;;;;;5080040;28;20051;-73
2022/08/18 10:18:44;;;;;;;10.65;5.22;;;21.60;99.90;;;;;;5091432;28;20066;-73
2022/08/18 10:21:25;;;;;;;8.15;4.72;;;21.60;99.90;;;;;;5085803;28;20039;-73
2022/08/18 10:24:10;;;;;;;6.22;4.55;;;21.60;99.90;;;;;;5090995;28;20492;-73
2022/08/18 10:26:39;;;;;;;9.55;4.50;;;21.60;99.90;;;;;;5091113;28;20047;-72
2022/08/18 10:29:10;;;;;;;7.18;5.45;;;21.70;99.90;;;;;;5109454;28;20047;-72
2022/08/18 10:31:58;;;;;;;5.43;4.90;;;21.70;99.90;;;;;;5087774;28;20044;-72
2022/08/18 10:34:47;;;;;;;6.28;4.68;;;21.60;99.90;;;;;;5103435;28;20044;-72
2022/08/18 10:37:53;;;;;;;5.97;4.15;;;21.60;99.90;;;;;;5083062;28;20450;-72
2022/08/18 10:40:22;;;;;;;4.75;4.32;;;21.60;99.90;;;;;;5029120;28;20095;-71
2022/08/18 10:43:08;;;;;;;7.60;4.28;;;21.60;99.90;;;;;;5074170;28;20424;-69
2022/08/18 10:45:44;;;;;;;7.43;5.10;;;21.70;99.90;;;;;;5103155;28;20409;-71
2022/08/18 10:48:33;;;;;;;5.53;4.40;;;21.70;99.90;;;;;;5096775;28;20034;-71
2022/08/18 10:51:10;;;;;;;10.30;4.18;;;21.70;99.90;;;;;;5109820;28;20054;-71
2022/08/18 10:53:46;;;;;;;9.07;4.97;;;21.80;99.90;;;;;;5090676;28;20197;-71
2022/08/18 10:56:36;;;;;;;5.78;4.28;;;21.80;99.90;;;;;;5109553;28;20051;-70
2022/08/18 10:59:30;;;;;;;9.65;4.53;;;21.90;99.90;;;;;;5109590;28;20534;-70
2022/08/18 11:01:59;;;;;;;5.72;4.30;;;21.90;99.90;;;;;;5107942;28;20116;-70
2022/08/18 11:04:30;;;;;;;8.15;4.55;;;22.00;99.90;;;;;;5097487;28;20044;-70
2022/08/18 11:07:20;;;;;;;5.93;4.50;;;21.90;99.90;;;;;;5089105;28;20127;-70
2022/08/18 11:09:49;;;;;;;5.40;4.13;;;22.00;99.90;;;;;;5086007;28;20505;-71
2022/08/18 11:12:34;;;;;;;7.15;4.50;;;22.00;99.90;;;;;;5102633;28;20040;-70
2022/08/18 11:15:15;;;;;;;12.05;7.05;;;22.00;99.90;;;;;;5091014;28;20092;-71
2022/08/18 11:17:54;;;;;;;10.98;8.68;;;22.00;99.90;;;;;;5103292;28;20549;-71
2022/08/18 11:20:25;;;;;;;8.55;6.78;;;21.90;99.90;;;;;;5088654;28;20117;-71
2022/08/18 11:22:55;;;;;;;9.63;5.43;;;21.80;99.90;;;;;;5081875;28;20055;-71
2022/08/18 11:25:31;;;;;;;10.35;4.50;;;21.90;99.90;;;;;;5106381;28;20124;-71
2022/08/18 11:28:00;;;;;;;7.60;4.75;;;21.90;99.90;;;;;;5089006;28;20048;-70
2022/08/18 11:30:31;;;;;;;8.27;4.90;;;22.00;99.90;;;;;;5107612;28;20050;-71
2022/08/18 11:32:57;;;;;;;7.55;4.47;;;22.00;99.90;;;;;;5101091;28;20497;-71
2022/08/18 11:35:31;;;;;;;14.88;5.53;;;22.20;99.90;;;;;;5089807;28;20055;-71
2022/08/18 11:37:59;;;;;;;15.00;6.28;;;22.30;99.90;;;;;;5105382;28;20148;-71
2022/08/18 11:40:30;;;;;;;12.00;6.43;;;22.20;99.90;;;;;;5109085;28;20120;-71
2022/08/18 11:43:10;;;;;;;13.98;5.85;;;22.30;99.90;;;;;;5090467;28;20495;-71
2022/08/18 11:45:45;;;;;;;12.10;4.90;;;22.30;99.90;;;;;;5108841;28;20054;-71
2022/08/18 11:48:30;;;;;;;7.32;4.43;;;22.20;99.90;;;;;;5088716;28;20105;-71
2022/08/18 11:51:00;;;;;;;8.20;5.07;;;22.20;99.90;;;;;;5108740;28;20040;-71
2022/08/18 11:53:32;;;;;;;7.75;5.20;;;22.20;99.90;;;;;;5107821;28;20059;-71
2022/08/18 11:56:12;;;;;;;8.30;5.00;;;22.30;99.90;;;;;;5090140;28;20039;-72
2022/08/18 11:58:57;;;;;;;7.00;4.88;;;22.20;99.90;;;;;;5077459;28;20051;-72
2022/08/18 12:01:30;;;;;;;8.00;4.97;;;22.20;99.90;;;;;;5100922;28;20054;-71
2022/08/18 12:04:05;;;;;;;7.68;5.18;;;22.30;99.90;;;;;;5089119;28;20052;-71
2022/08/18 12:06:34;;;;;;;6.55;4.90;;;22.30;99.90;;;;;;5085057;28;20036;-72
2022/08/18 12:09:20;;;;;;;8.30;5.45;;;22.30;99.90;;;;;;5107691;28;20051;-72
2022/08/18 12:11:55;;;;;;;12.95;6.10;;;22.30;99.90;;;;;;5077251;28;20107;-71
2022/08/18 12:14:25;;;;;;;10.15;4.93;;;22.20;99.90;;;;;;5088403;28;20085;-72
2022/08/18 12:16:53;;;;;;;6.45;5.35;;;22.20;99.90;;;;;;5105575;28;20497;-73
2022/08/18 12:19:19;;;;;;;8.43;5.18;;;22.10;99.90;;;;;;5084737;28;20127;-72
2022/08/18 12:21:55;;;;;;;5.18;4.22;;;22.10;99.90;;;;;;5088936;28;20075;-72
2022/08/18 12:24:26;;;;;;;8.75;4.45;;;22.30;99.90;;;;;;5085444;28;20036;-73
2022/08/18 12:26:52;;;;;;;9.23;4.88;;;22.40;99.90;;;;;;5090561;28;20036;-73
2022/08/18 12:29:19;;;;;;;5.97;5.03;;;22.40;99.90;;;;;;5088428;28;20108;-73
2022/08/18 12:31:51;;;;;;;17.33;5.28;;;22.50;99.90;;;;;;5088503;28;20098;-73
2022/08/18 12:34:25;;;;;;;5.18;4.78;;;22.70;99.90;;;;;;5087328;28;20416;-73
2022/08/18 12:36:53;;;;;;;9.07;6.13;;;22.80;99.90;;;;;;5087303;28;20051;-76
2022/08/18 12:39:18;;;;;;;14.63;5.35;;;23.10;99.90;;;;;;5089487;28;20046;-74
2022/08/18 12:41:44;;;;;;;6.70;4.30;;;23.20;99.90;;;;;;5090667;28;20548;-74
2022/08/18 12:44:10;;;;;;;9.93;6.03;;;23.30;99.90;;;;;;5090443;28;20633;-74
2022/08/18 12:46:36;;;;;;;7.85;5.30;;;23.70;99.90;;;;;;5085764;28;20044;-74
2022/08/18 12:49:03;;;;;;;13.30;5.60;;;23.90;99.90;;;;;;5090019;28;20079;-74
2022/08/18 12:51:29;;;;;;;11.80;6.00;;;23.90;99.90;;;;;;5104379;28;20058;-74
2022/08/18 12:53:55;;;;;;;10.43;5.95;;;23.80;99.90;;;;;;5090049;28;20051;-74
2022/08/18 12:56:29;;;;;;;6.57;4.72;;;23.70;99.90;;;;;;5075305;28;20054;-73
2022/08/18 12:58:56;;;;;;;9.07;4.97;;;23.90;99.90;;;;;;5079068;28;20051;-75
2022/08/18 13:01:25;;;;;;;10.32;5.07;;;24.00;99.90;;;;;;5085665;28;20044;-74
2022/08/18 13:03:54;;;;;;;6.07;5.50;;;24.00;99.90;;;;;;5089009;28;20051;-72
2022/08/18 13:06:24;;;;;;;13.15;5.78;;;24.10;99.90;;;;;;5090952;28;20103;-73
2022/08/18 13:08:50;;;;;;;6.72;5.00;;;24.10;99.90;;;;;;5081485;28;20104;-76
2022/08/18 13:11:19;;;;;;;6.32;5.40;;;24.30;99.90;;;;;;5107994;28;20051;-76
2022/08/18 13:13:45;;;;;;;7.68;4.82;;;24.30;99.90;;;;;;5089522;28;20500;-76
2022/08/18 13:16:12;;;;;;;5.90;4.57;;;24.20;99.90;;;;;;5085141;28;20049;-75